Time;durP1;ratioP1;P1;durP2;ratioP2;P2;SDS_P1;SDS_P2;PMS_P1;PMS_P2;Temp;Humidity;BMP_temperature;BMP_pressure;BME280_temperature;BME280_humidity;BME280_pressure;Samples;Min_cycle;Max_cycle;Signal;HPM_P1;HPM_P2
2023/04/03 00:00:57;;;;;;;5.22;1.10;;;;;;;;;;5022681;28;20061;-58
2023/04/03 00:03:23;;;;;;;3.22;1.45;;;;;;;;;;5025783;28;20582;-57
2023/04/03 00:05:50;;;;;;;3.35;1.10;;;;;;;;;;5024725;28;20061;-58
2023/04/03 00:08:17;;;;;;;2.78;1.20;;;;;;;;;;5026797;28;20054;-59
2023/04/03 00:10:43;;;;;;;2.10;1.30;;;;;;;;;;5026854;28;20108;-57
2023/04/03 00:13:10;;;;;;;3.42;1.70;;;;;;;;;;5024296;28;20058;-57
2023/04/03 00:15:36;;;;;;;1.50;1.02;;;;;;;;;;5007276;28;20479;-57
2023/04/03 00:18:03;;;;;;;2.25;1.00;;;;;;;;;;5025395;28;20053;-56
2023/04/03 00:20:29;;;;;;;4.05;1.30;;;;;;;;;;5019984;28;20057;-57
2023/04/03 00:22:56;;;;;;;4.72;1.40;;;;;;;;;;5025758;28;20049;-57
2023/04/03 00:25:22;;;;;;;1.83;1.27;;;;;;;;;;5025173;28;20060;-58
2023/04/03 00:27:49;;;;;;;2.40;1.13;;;;;;;;;;5024507;28;20104;-57
2023/04/03 00:30:17;;;;;;;1.98;1.13;;;;;;;;;;5021945;28;20060;-57
2023/04/03 00:32:43;;;;;;;3.53;1.33;;;;;;;;;;5026274;28;20066;-58
2023/04/03 00:35:10;;;;;;;3.60;1.30;;;;;;;;;;5022500;28;20046;-58
2023/04/03 00:37:36;;;;;;;2.33;1.52;;;;;;;;;;5025858;28;20054;-57
2023/04/03 00:40:03;;;;;;;2.85;1.20;;;;;;;;;;5024881;28;20050;-58
2023/04/03 00:42:30;;;;;;;3.00;1.48;;;;;;;;;;5024485;28;20772;-58
2023/04/03 00:44:56;;;;;;;3.00;1.63;;;;;;;;;;5024382;28;20054;-56
2023/04/03 00:47:23;;;;;;;1.95;1.20;;;;;;;;;;5025203;28;20081;-58
2023/04/03 00:49:50;;;;;;;2.75;1.23;;;;;;;;;;5024918;28;20654;-55
2023/04/03 00:52:18;;;;;;;4.38;1.58;;;;;;;;;;5023273;28;20042;-55
2023/04/03 00:54:46;;;;;;;2.35;1.30;;;;;;;;;;5025139;28;20054;-58
2023/04/03 00:57:12;;;;;;;4.15;1.55;;;;;;;;;;5023887;28;20065;-58
2023/04/03 00:59:41;;;;;;;2.45;1.17;;;;;;;;;;5023511;28;20054;-57
2023/04/03 01:02:08;;;;;;;1.25;1.10;;;;;;;;;;5021624;28;20054;-54
2023/04/03 01:04:36;;;;;;;2.97;1.52;;;;;;;;;;5025087;28;20536;-58
2023/04/03 01:07:15;;;;;;;2.92;1.63;;;;;;;;;;5024865;28;20053;-58
2023/04/03 01:09:41;;;;;;;2.92;1.38;;;;;;;;;;5024988;28;20514;-58
2023/04/03 01:12:18;;;;;;;2.35;1.50;;;;;;;;;;5024343;28;20512;-58
2023/04/03 01:14:46;;;;;;;2.45;1.27;;;;;;;;;;5025008;28;20099;-57
2023/04/03 01:17:24;;;;;;;2.63;1.40;;;;;;;;;;5023122;28;20054;-57
2023/04/03 01:19:58;;;;;;;2.95;1.17;;;;;;;;;;5024441;28;20133;-57
2023/04/03 01:22:30;;;;;;;1.85;1.30;;;;;;;;;;5024091;28;20149;-53
2023/04/03 01:24:56;;;;;;;3.30;1.52;;;;;;;;;;5023068;28;20512;-56
2023/04/03 01:27:23;;;;;;;1.20;1.00;;;;;;;;;;5023968;28;20526;-57
2023/04/03 01:29:49;;;;;;;2.75;1.30;;;;;;;;;;5023966;28;20069;-57
2023/04/03 01:32:16;;;;;;;1.90;1.10;;;;;;;;;;5023391;28;20552;-55
2023/04/03 01:34:42;;;;;;;3.55;1.60;;;;;;;;;;5022613;28;20455;-57
2023/04/03 01:37:08;;;;;;;2.92;1.40;;;;;;;;;;5024267;28;20137;-58
2023/04/03 01:39:35;;;;;;;4.25;1.73;;;;;;;;;;5024007;28;20080;-57
2023/04/03 01:42:01;;;;;;;2.47;1.25;;;;;;;;;;5024423;28;20164;-56
2023/04/03 01:44:27;;;;;;;3.05;1.48;;;;;;;;;;5023762;28;20058;-58
2023/04/03 01:46:54;;;;;;;4.30;1.60;;;;;;;;;;5024025;28;20081;-55
2023/04/03 01:49:20;;;;;;;3.95;1.60;;;;;;;;;;5024274;28;20082;-59
2023/04/03 01:51:47;;;;;;;2.58;1.30;;;;;;;;;;5023145;28;20112;-58
2023/04/03 01:54:13;;;;;;;3.42;1.63;;;;;;;;;;5024316;28;20050;-54
2023/04/03 01:56:40;;;;;;;3.75;1.40;;;;;;;;;;5023042;28;20148;-58
2023/04/03 01:59:06;;;;;;;2.88;1.58;;;;;;;;;;5023220;28;20049;-58
2023/04/03 02:01:32;;;;;;;2.13;1.35;;;;;;;;;;5022887;28;20054;-57
2023/04/03 02:03:59;;;;;;;2.35;1.48;;;;;;;;;;5024588;28;20112;-58
2023/04/03 02:06:25;;;;;;;2.22;1.30;;;;;;;;;;5023420;28;20061;-57
2023/04/03 02:08:52;;;;;;;5.05;1.35;;;;;;;;;;5023926;28;20052;-58
2023/04/03 02:11:18;;;;;;;1.70;1.40;;;;;;;;;;5023992;28;20058;-58
2023/04/03 02:13:45;;;;;;;3.65;1.58;;;;;;;;;;5022822;28;20068;-58
2023/04/03 02:16:12;;;;;;;4.63;1.52;;;;;;;;;;5024245;28;20053;-57
2023/04/03 02:18:38;;;;;;;1.30;1.10;;;;;;;;;;5023633;28;20050;-54
2023/04/03 02:21:05;;;;;;;3.67;1.35;;;;;;;;;;5021887;28;20140;-57
2023/04/03 02:23:32;;;;;;;5.53;1.85;;;;;;;;;;5024312;28;20096;-58
2023/04/03 02:26:05;;;;;;;2.25;1.45;;;;;;;;;;5023497;28;20069;-58
2023/04/03 02:28:32;;;;;;;4.47;1.55;;;;;;;;;;5023829;28;20054;-57
2023/04/03 02:30:58;;;;;;;3.05;1.40;;;;;;;;;;5025693;28;20108;-58
2023/04/03 02:33:25;;;;;;;4.00;1.90;;;;;;;;;;5028131;28;20045;-61
2023/04/03 02:35:55;;;;;;;3.40;1.67;;;;;;;;;;5025467;28;20050;-57
2023/04/03 02:38:22;;;;;;;3.47;1.40;;;;;;;;;;5027392;28;20085;-58
2023/04/03 02:40:48;;;;;;;6.28;1.90;;;;;;;;;;5027595;28;20086;-55
2023/04/03 02:43:14;;;;;;;2.65;1.33;;;;;;;;;;5027017;28;20080;-57
2023/04/03 02:45:41;;;;;;;3.53;1.80;;;;;;;;;;5027294;28;20050;-56
2023/04/03 02:48:07;;;;;;;3.83;1.60;;;;;;;;;;5025810;28;20046;-58
2023/04/03 02:50:34;;;;;;;1.85;1.55;;;;;;;;;;5026933;28;20050;-57
2023/04/03 02:53:01;;;;;;;3.63;1.80;;;;;;;;;;5011502;28;20096;-57
2023/04/03 02:55:27;;;;;;;4.10;1.55;;;;;;;;;;5025193;28;20599;-57
2023/04/03 02:57:53;;;;;;;2.35;1.40;;;;;;;;;;5028052;28;20057;-53
2023/04/03 03:00:20;;;;;;;2.33;1.17;;;;;;;;;;5027453;28;20050;-57
2023/04/03 03:02:48;;;;;;;3.22;1.63;;;;;;;;;;5026670;28;20089;-57
2023/04/03 03:05:15;;;;;;;5.35;1.80;;;;;;;;;;5027105;28;20089;-57
2023/04/03 03:07:41;;;;;;;5.45;2.00;;;;;;;;;;5025826;28;20046;-58
2023/04/03 03:10:07;;;;;;;3.03;1.33;;;;;;;;;;5026798;28;20428;-55
2023/04/03 03:12:34;;;;;;;4.35;1.90;;;;;;;;;;5027311;28;20058;-57
2023/04/03 03:15:00;;;;;;;2.83;1.85;;;;;;;;;;5026520;28;20061;-57
2023/04/03 03:17:27;;;;;;;6.30;1.73;;;;;;;;;;5025558;28;20085;-56
2023/04/03 03:19:53;;;;;;;3.10;1.55;;;;;;;;;;5026497;28;20070;-57
2023/04/03 03:22:20;;;;;;;3.67;1.48;;;;;;;;;;5026951;28;20132;-56
2023/04/03 03:24:46;;;;;;;3.40;1.90;;;;;;;;;;5026153;28;20053;-55
2023/04/03 03:27:12;;;;;;;5.30;2.33;;;;;;;;;;5026443;28;20064;-55
2023/04/03 03:29:38;;;;;;;3.75;2.05;;;;;;;;;;5026678;28;20808;-57
2023/04/03 03:32:05;;;;;;;3.65;1.92;;;;;;;;;;5006147;28;20058;-59
2023/04/03 03:34:32;;;;;;;6.05;1.90;;;;;;;;;;5023752;28;20050;-56
2023/04/03 03:36:58;;;;;;;4.40;1.70;;;;;;;;;;5025199;28;20131;-56
2023/04/03 03:39:25;;;;;;;2.80;1.65;;;;;;;;;;5026991;28;20050;-53
2023/04/03 03:41:53;;;;;;;4.70;1.52;;;;;;;;;;5025555;28;20510;-55
2023/04/03 03:44:20;;;;;;;3.00;1.65;;;;;;;;;;5026157;28;20062;-60
2023/04/03 03:46:46;;;;;;;4.47;2.03;;;;;;;;;;5023798;28;20073;-55
2023/04/03 03:49:13;;;;;;;3.42;1.70;;;;;;;;;;5020347;28;20108;-56
2023/04/03 03:51:39;;;;;;;2.03;1.42;;;;;;;;;;5023755;28;20045;-55
2023/04/03 03:54:06;;;;;;;2.80;1.52;;;;;;;;;;5024899;28;20164;-55
2023/04/03 03:56:33;;;;;;;3.75;1.55;;;;;;;;;;5026665;28;20058;-56
2023/04/03 03:59:00;;;;;;;5.55;1.95;;;;;;;;;;5026181;28;20141;-56
2023/04/03 04:01:26;;;;;;;2.95;2.13;;;;;;;;;;5025030;28;20054;-57
2023/04/03 04:03:53;;;;;;;5.03;2.00;;;;;;;;;;5025571;28;20141;-55
2023/04/03 04:06:21;;;;;;;2.55;1.63;;;;;;;;;;5024800;28;20069;-57
2023/04/03 04:08:47;;;;;;;4.55;1.73;;;;;;;;;;5018083;28;20045;-56
2023/04/03 04:11:13;;;;;;;3.42;1.83;;;;;;;;;;5024770;28;20050;-57
2023/04/03 04:13:40;;;;;;;3.72;2.10;;;;;;;;;;5024180;28;20148;-57
2023/04/03 04:16:07;;;;;;;7.15;2.10;;;;;;;;;;5023611;28;20061;-57
2023/04/03 04:18:33;;;;;;;6.38;1.67;;;;;;;;;;5025638;28;20153;-58
2023/04/03 04:21:00;;;;;;;7.72;2.00;;;;;;;;;;5024851;28;20057;-57
2023/04/03 04:23:26;;;;;;;2.85;1.73;;;;;;;;;;5025455;28;20108;-56
2023/04/03 04:25:52;;;;;;;3.67;1.67;;;;;;;;;;5025021;28;20157;-57
2023/04/03 04:28:19;;;;;;;4.63;1.70;;;;;;;;;;5023251;28;20054;-57
2023/04/03 04:30:45;;;;;;;6.32;1.83;;;;;;;;;;5021908;28;20042;-57
2023/04/03 04:33:13;;;;;;;4.28;1.90;;;;;;;;;;5025893;28;20060;-56
2023/04/03 04:35:41;;;;;;;6.45;2.17;;;;;;;;;;5023888;28;20404;-56
2023/04/03 04:38:08;;;;;;;6.45;2.47;;;;;;;;;;5023683;28;20528;-57
2023/04/03 04:40:35;;;;;;;6.63;2.05;;;;;;;;;;5024127;28;20081;-57
2023/04/03 04:43:02;;;;;;;3.70;2.17;;;;;;;;;;5025250;28;20140;-56
2023/04/03 04:45:28;;;;;;;2.47;1.85;;;;;;;;;;5024107;28;20827;-54
2023/04/03 04:47:55;;;;;;;4.32;2.05;;;;;;;;;;5024608;28;20146;-53
2023/04/03 04:50:22;;;;;;;4.03;2.05;;;;;;;;;;5008235;28;20046;-57
2023/04/03 04:52:48;;;;;;;5.88;1.83;;;;;;;;;;5023115;28;20184;-57
2023/04/03 04:55:15;;;;;;;4.85;2.05;;;;;;;;;;5023814;28;20065;-58
2023/04/03 04:57:41;;;;;;;4.70;2.28;;;;;;;;;;5007616;28;20085;-57
2023/04/03 05:00:08;;;;;;;5.38;1.83;;;;;;;;;;5022958;28;20053;-57
2023/04/03 05:02:34;;;;;;;8.70;2.42;;;;;;;;;;5021478;28;20085;-57
2023/04/03 05:05:00;;;;;;;4.15;1.77;;;;;;;;;;5025407;28;20124;-57
2023/04/03 05:07:30;;;;;;;5.75;2.47;;;;;;;;;;5024708;28;20060;-57
2023/04/03 05:09:56;;;;;;;4.07;2.10;;;;;;;;;;5023538;28;20053;-57
2023/04/03 05:12:22;;;;;;;5.82;2.00;;;;;;;;;;5024346;28;20061;-57
2023/04/03 05:14:49;;;;;;;10.20;2.13;;;;;;;;;;5005328;28;20051;-58
2023/04/03 05:17:15;;;;;;;4.78;1.95;;;;;;;;;;5020630;28;20054;-57
2023/04/03 05:19:42;;;;;;;7.85;2.63;;;;;;;;;;5024705;28;20052;-56
2023/04/03 05:22:08;;;;;;;5.68;1.83;;;;;;;;;;5024012;28;20048;-54
2023/04/03 05:24:34;;;;;;;3.45;1.85;;;;;;;;;;5024962;28;20048;-56
2023/04/03 05:27:01;;;;;;;6.75;3.17;;;;;;;;;;5022154;28;20053;-55
2023/04/03 05:29:27;;;;;;;6.25;2.03;;;;;;;;;;5024305;28;20049;-59
2023/04/03 05:31:54;;;;;;;3.08;1.73;;;;;;;;;;5017016;28;20085;-56
2023/04/03 05:34:21;;;;;;;5.63;2.50;;;;;;;;;;5020801;28;20057;-57
2023/04/03 05:36:47;;;;;;;3.08;1.80;;;;;;;;;;5006176;28;20076;-54
2023/04/03 05:39:13;;;;;;;3.17;2.15;;;;;;;;;;5024830;28;20565;-55
2023/04/03 05:41:40;;;;;;;2.22;1.80;;;;;;;;;;5021009;28;20122;-56
2023/04/03 05:44:06;;;;;;;4.97;2.33;;;;;;;;;;5018988;28;20101;-55
2023/04/03 05:46:33;;;;;;;4.15;2.03;;;;;;;;;;5023977;28;20058;-57
2023/04/03 05:48:59;;;;;;;3.90;1.70;;;;;;;;;;5024037;28;20052;-58
2023/04/03 05:51:28;;;;;;;5.68;2.22;;;;;;;;;;5017824;28;20065;-56
2023/04/03 05:53:59;;;;;;;4.35;1.85;;;;;;;;;;5025237;28;20049;-57
2023/04/03 05:56:25;;;;;;;4.72;2.10;;;;;;;;;;5022335;28;20057;-57
2023/04/03 05:58:52;;;;;;;9.85;2.88;;;;;;;;;;5023750;28;20737;-55
2023/04/03 06:01:18;;;;;;;3.17;2.10;;;;;;;;;;5023260;28;20595;-57
2023/04/03 06:03:44;;;;;;;4.75;2.13;;;;;;;;;;5007457;28;20053;-57
2023/04/03 06:06:12;;;;;;;4.25;1.92;;;;;;;;;;5027114;28;20427;-55
2023/04/03 06:08:39;;;;;;;4.75;2.08;;;;;;;;;;5024956;28;20057;-56
2023/04/03 06:11:05;;;;;;;2.88;1.48;;;;;;;;;;5027466;28;20574;-57
2023/04/03 06:13:32;;;;;;;4.32;1.98;;;;;;;;;;5027422;28;20053;-58
2023/04/03 06:15:59;;;;;;;4.70;2.28;;;;;;;;;;5026393;28;20049;-59
2023/04/03 06:18:26;;;;;;;3.95;1.63;;;;;;;;;;5025899;28;20054;-54
2023/04/03 06:20:52;;;;;;;7.10;2.13;;;;;;;;;;5027004;28;20573;-56
2023/04/03 06:23:18;;;;;;;2.78;1.88;;;;;;;;;;5026803;28;20856;-57
2023/04/03 06:25:45;;;;;;;3.72;2.90;;;;;;;;;;5025228;28;20053;-57
2023/04/03 06:28:11;;;;;;;4.60;2.08;;;;;;;;;;5025694;28;20504;-58
2023/04/03 06:30:37;;;;;;;6.15;1.83;;;;;;;;;;5027724;28;20143;-58
2023/04/03 06:33:04;;;;;;;5.72;2.13;;;;;;;;;;5026010;28;20042;-57
2023/04/03 06:35:31;;;;;;;5.57;1.83;;;;;;;;;;5026292;28;20132;-55
2023/04/03 06:37:58;;;;;;;4.63;1.67;;;;;;;;;;5025669;28;20054;-56
2023/04/03 06:40:25;;;;;;;3.47;2.25;;;;;;;;;;5025743;28;20100;-57
2023/04/03 06:42:52;;;;;;;6.25;1.95;;;;;;;;;;5025166;28;20076;-58
2023/04/03 06:45:19;;;;;;;4.80;1.70;;;;;;;;;;5018334;28;20050;-57
2023/04/03 06:47:45;;;;;;;5.03;2.13;;;;;;;;;;5027325;28;20089;-56
2023/04/03 06:50:13;;;;;;;9.10;2.85;;;;;;;;;;5026650;28;20050;-56
2023/04/03 06:52:41;;;;;;;5.70;2.10;;;;;;;;;;5025876;28;20053;-57
2023/04/03 06:55:08;;;;;;;2.95;1.85;;;;;;;;;;5037267;28;20125;-58
2023/04/03 06:57:34;;;;;;;5.72;2.58;;;;;;;;;;5024977;28;20054;-58
2023/04/03 07:00:01;;;;;;;3.67;2.42;;;;;;;;;;5026613;28;20058;-55
2023/04/03 07:02:28;;;;;;;4.82;1.90;;;;;;;;;;5026603;28;20056;-56
2023/04/03 07:04:54;;;;;;;3.97;1.90;;;;;;;;;;5026943;28;20054;-54
2023/04/03 07:07:21;;;;;;;4.53;2.00;;;;;;;;;;5026507;28;20049;-57
2023/04/03 07:09:49;;;;;;;3.60;2.53;;;;;;;;;;5026630;28;20116;-57
2023/04/03 07:12:15;;;;;;;5.82;1.83;;;;;;;;;;5024258;28;20053;-58
2023/04/03 07:14:42;;;;;;;6.32;1.90;;;;;;;;;;5021472;28;20042;-56
2023/04/03 07:17:08;;;;;;;5.13;1.80;;;;;;;;;;5025928;28;20060;-58
2023/04/03 07:19:35;;;;;;;2.72;1.85;;;;;;;;;;5025591;28;20054;-56
2023/04/03 07:22:01;;;;;;;3.53;1.60;;;;;;;;;;5024731;28;20241;-57
2023/04/03 07:24:28;;;;;;;3.05;1.60;;;;;;;;;;5007119;28;20599;-56
2023/04/03 07:26:54;;;;;;;3.33;1.50;;;;;;;;;;5024013;28;20054;-58
2023/04/03 07:29:21;;;;;;;5.63;2.13;;;;;;;;;;5020424;28;20089;-61
2023/04/03 07:31:48;;;;;;;4.10;1.88;;;;;;;;;;5025543;28;20064;-59
2023/04/03 07:34:14;;;;;;;4.68;2.15;;;;;;;;;;5026438;28;20707;-56
2023/04/03 07:36:41;;;;;;;3.30;2.13;;;;;;;;;;5026389;28;20053;-58
2023/04/03 07:39:08;;;;;;;6.53;1.90;;;;;;;;;;5024293;28;20109;-59
2023/04/03 07:41:34;;;;;;;6.35;1.92;;;;;;;;;;5025880;28;20061;-57
2023/04/03 07:44:00;;;;;;;5.15;1.90;;;;;;;;;;5026947;28;20436;-54
2023/04/03 07:46:27;;;;;;;5.47;2.13;;;;;;;;;;5026597;28;20046;-55
2023/04/03 07:48:53;;;;;;;4.60;1.80;;;;;;;;;;5024446;28;20073;-58
2023/04/03 07:51:23;;;;;;;3.63;1.73;;;;;;;;;;5024864;28;20058;-56
2023/04/03 07:53:50;;;;;;;6.70;1.83;;;;;;;;;;5026909;28;20801;-57
2023/04/03 07:56:17;;;;;;;3.03;1.45;;;;;;;;;;5026045;28;20061;-56
2023/04/03 07:58:43;;;;;;;4.45;1.85;;;;;;;;;;5027009;28;20053;-59
2023/04/03 08:01:09;;;;;;;3.67;1.40;;;;;;;;;;5027248;28;20057;-59
2023/04/03 08:03:37;;;;;;;4.45;1.73;;;;;;;;;;5025111;28;20522;-59
2023/04/03 08:06:04;;;;;;;3.10;1.52;;;;;;;;;;5026960;28;20507;-56
2023/04/03 08:08:32;;;;;;;7.00;1.58;;;;;;;;;;5026170;28;20042;-58
2023/04/03 08:11:02;;;;;;;3.53;1.27;;;;;;;;;;5024974;28;20500;-58
2023/04/03 08:13:29;;;;;;;2.78;1.45;;;;;;;;;;5026495;28;20081;-59
2023/04/03 08:15:57;;;;;;;4.90;1.65;;;;;;;;;;5026292;28;20061;-59
2023/04/03 08:18:24;;;;;;;3.90;1.58;;;;;;;;;;5025712;28;20064;-58
2023/04/03 08:20:51;;;;;;;3.10;1.35;;;;;;;;;;5026131;28;20060;-57
2023/04/03 08:23:18;;;;;;;2.33;1.25;;;;;;;;;;5022224;28;20648;-59
2023/04/03 08:25:45;;;;;;;2.22;1.48;;;;;;;;;;5013506;28;20057;-58
2023/04/03 08:28:12;;;;;;;5.13;1.63;;;;;;;;;;5016399;28;20504;-58
2023/04/03 08:30:39;;;;;;;2.78;1.20;;;;;;;;;;5009814;28;20129;-58
2023/04/03 08:33:07;;;;;;;1.75;1.27;;;;;;;;;;5023199;28;20054;-58
2023/04/03 08:35:37;;;;;;;2.92;1.05;;;;;;;;;;5016853;28;20513;-59
2023/04/03 08:38:04;;;;;;;4.40;1.48;;;;;;;;;;5041159;28;20071;-58
2023/04/03 08:40:30;;;;;;;1.60;1.20;;;;;;;;;;5028535;28;20042;-56
2023/04/03 08:43:04;;;;;;;2.80;1.10;;;;;;;;;;5005571;28;20153;-60
2023/04/03 08:45:42;;;;;;;2.92;1.42;;;;;;;;;;5023810;28;20064;-56
2023/04/03 08:48:26;;;;;;;3.28;1.10;;;;;;;;;;5023460;28;20054;-58
2023/04/03 08:50:56;;;;;;;5.72;1.17;;;;;;;;;;5023782;28;20052;-58
2023/04/03 08:53:25;;;;;;;0.88;0.85;;;;;;;;;;5021425;28;20046;-59
2023/04/03 08:55:53;;;;;;;1.38;0.90;;;;;;;;;;5022220;28;20049;-57
2023/04/03 08:58:21;;;;;;;1.60;0.82;;;;;;;;;;5021787;28;20054;-59
2023/04/03 09:00:49;;;;;;;1.75;1.10;;;;;;;;;;5004014;28;20093;-55
2023/04/03 09:03:18;;;;;;;1.55;1.02;;;;;;;;;;5021835;28;20104;-55
2023/04/03 09:05:53;;;;;;;1.40;0.80;;;;;;;;;;5020628;28;20050;-58
2023/04/03 09:08:28;;;;;;;0.90;0.65;;;;;;;;;;5022731;28;20054;-58
2023/04/03 09:11:16;;;;;;;2.95;0.93;;;;;;;;;;5022389;28;20573;-56
2023/04/03 09:13:46;;;;;;;2.08;0.90;;;;;;;;;;5022582;28;20897;-55
2023/04/03 09:16:33;;;;;;;1.70;1.02;;;;;;;;;;5019953;28;20571;-57
2023/04/03 09:19:09;;;;;;;7.03;1.30;;;;;;;;;;4980943;28;20577;-58
2023/04/03 09:21:35;;;;;;;;;;;;;;;;;;5019882;28;20115;-59
2023/04/03 09:24:04;;;;;;;2.00;0.68;;;;;;;;;;5021378;28;44633;-59
2023/04/03 09:26:33;;;;;;;1.27;0.60;;;;;;;;;;5015615;28;20054;-55
2023/04/03 09:29:02;;;;;;;1.17;0.73;;;;;;;;;;5022263;28;20060;-59
2023/04/03 09:31:36;;;;;;;0.57;0.50;;;;;;;;;;5015975;28;20042;-58
2023/04/03 09:34:24;;;;;;;1.98;0.65;;;;;;;;;;5018564;28;20120;-58
2023/04/03 09:36:52;;;;;;;0.77;0.50;;;;;;;;;;5002789;28;20082;-56
2023/04/03 09:39:20;;;;;;;0.60;0.57;;;;;;;;;;5015865;28;20086;-56
2023/04/03 09:41:57;;;;;;;0.60;0.38;;;;;;;;;;5022155;28;20709;-57
2023/04/03 09:44:25;;;;;;;0.50;0.50;;;;;;;;;;5025293;28;20144;-55
2023/04/03 09:46:52;;;;;;;2.20;0.40;;;;;;;;;;5023305;28;20053;-58
2023/04/03 09:49:19;;;;;;;2.53;0.55;;;;;;;;;;5018436;28;20126;-58
2023/04/03 09:51:45;;;;;;;1.83;0.50;;;;;;;;;;5022455;28;20057;-58
2023/04/03 09:54:30;;;;;;;1.55;1.15;;;;;;;;;;5021711;28;20054;-54
2023/04/03 09:57:00;;;;;;;2.88;0.80;;;;;;;;;;5022937;28;20042;-57
2023/04/03 09:59:27;;;;;;;3.08;0.73;;;;;;;;;;5016337;28;20534;-57
2023/04/03 10:01:58;;;;;;;1.92;0.73;;;;;;;;;;5014474;28;20054;-55
2023/04/03 10:04:25;;;;;;;0.70;0.45;;;;;;;;;;5017863;28;20090;-57
2023/04/03 10:06:53;;;;;;;1.15;0.50;;;;;;;;;;5013559;28;20064;-55
2023/04/03 10:09:21;;;;;;;1.15;0.60;;;;;;;;;;5002633;28;20137;-57
2023/04/03 10:12:04;;;;;;;1.02;0.55;;;;;;;;;;5002590;28;20050;-57
2023/04/03 10:14:33;;;;;;;0.98;0.77;;;;;;;;;;5017951;28;20161;-59
2023/04/03 10:17:03;;;;;;;5.35;0.95;;;;;;;;;;5020793;28;20053;-58
2023/04/03 10:19:35;;;;;;;2.13;0.40;;;;;;;;;;5022629;28;20062;-57
2023/04/03 10:22:09;;;;;;;1.27;0.65;;;;;;;;;;5022140;28;20046;-58
2023/04/03 10:24:47;;;;;;;3.22;0.80;;;;;;;;;;5021192;28;20080;-57
2023/04/03 10:27:18;;;;;;;0.65;0.45;;;;;;;;;;5020117;28;20137;-58
2023/04/03 10:29:54;;;;;;;0.93;0.45;;;;;;;;;;5016513;28;20532;-56
2023/04/03 10:32:21;;;;;;;1.77;0.60;;;;;;;;;;5017791;28;20042;-57
2023/04/03 10:34:49;;;;;;;0.75;0.60;;;;;;;;;;5020559;28;20058;-58
2023/04/03 10:37:36;;;;;;;1.38;0.50;;;;;;;;;;5021642;28;20316;-59
2023/04/03 10:40:15;;;;;;;1.33;0.50;;;;;;;;;;5021867;28;20516;-56
2023/04/03 10:42:50;;;;;;;1.55;0.50;;;;;;;;;;5020025;28;20140;-59
2023/04/03 10:45:41;;;;;;;1.08;0.52;;;;;;;;;;5017360;28;20559;-57
2023/04/03 10:48:07;;;;;;;2.15;0.47;;;;;;;;;;5028733;28;20068;-59
2023/04/03 10:50:43;;;;;;;2.20;0.70;;;;;;;;;;5019345;28;20058;-56
2023/04/03 10:53:17;;;;;;;1.05;0.95;;;;;;;;;;5029017;28;20169;-53
2023/04/03 10:55:52;;;;;;;1.30;0.70;;;;;;;;;;4999135;28;20049;-53
2023/04/03 10:58:27;;;;;;;0.95;0.75;;;;;;;;;;5012398;28;20838;-58
2023/04/03 11:00:54;;;;;;;3.40;0.60;;;;;;;;;;5018525;28;20049;-56
2023/04/03 11:03:32;;;;;;;1.45;0.50;;;;;;;;;;5024625;28;20141;-57
2023/04/03 11:06:00;;;;;;;0.85;0.68;;;;;;;;;;5025188;28;20053;-56
2023/04/03 11:08:35;;;;;;;0.85;0.60;;;;;;;;;;5024399;28;20610;-54
2023/04/03 11:11:21;;;;;;;0.95;0.50;;;;;;;;;;5025382;28;20604;-55
2023/04/03 11:14:01;;;;;;;2.70;0.63;;;;;;;;;;5024690;28;20050;-55
2023/04/03 11:16:28;;;;;;;0.47;0.30;;;;;;;;;;5024706;28;20501;-56
2023/04/03 11:19:13;;;;;;;1.30;0.70;;;;;;;;;;5025040;28;20050;-58
2023/04/03 11:21:46;;;;;;;2.40;0.82;;;;;;;;;;5021168;28;20064;-58
2023/04/03 11:24:20;;;;;;;1.48;0.57;;;;;;;;;;5005634;28;20436;-56
2023/04/03 11:26:48;;;;;;;1.17;1.00;;;;;;;;;;5032762;28;20050;-57
2023/04/03 11:29:18;;;;;;;1.70;0.90;;;;;;;;;;5028276;28;20132;-56
2023/04/03 11:32:00;;;;;;;1.88;0.95;;;;;;;;;;5022127;28;20112;-54
2023/04/03 11:34:44;;;;;;;2.35;0.75;;;;;;;;;;5022086;28;20500;-57
2023/04/03 11:37:13;;;;;;;1.40;0.80;;;;;;;;;;5020758;28;20054;-59
2023/04/03 11:39:47;;;;;;;2.63;0.60;;;;;;;;;;5022579;28;20076;-59
2023/04/03 11:42:33;;;;;;;4.75;0.80;;;;;;;;;;5005207;28;20054;-62
2023/04/03 11:45:18;;;;;;;1.88;0.85;;;;;;;;;;5022834;28;20137;-55
2023/04/03 11:47:47;;;;;;;1.40;0.60;;;;;;;;;;5036738;28;20492;-60
2023/04/03 11:50:41;;;;;;;1.10;0.70;;;;;;;;;;5023908;28;20312;-60
2023/04/03 11:53:08;;;;;;;2.65;0.88;;;;;;;;;;5020268;28;20626;-59
2023/04/03 11:55:35;;;;;;;1.30;0.60;;;;;;;;;;5004943;28;20062;-59
2023/04/03 11:58:04;;;;;;;3.35;0.90;;;;;;;;;;5023133;28;20141;-60
2023/04/03 12:00:49;;;;;;;1.38;0.85;;;;;;;;;;5022847;28;20096;-57
2023/04/03 12:03:28;;;;;;;3.60;0.98;;;;;;;;;;5021619;28;20152;-60
2023/04/03 12:06:14;;;;;;;1.75;0.85;;;;;;;;;;5007106;28;20140;-61
2023/04/03 12:08:47;;;;;;;1.40;0.90;;;;;;;;;;5004378;28;20467;-58
2023/04/03 12:11:16;;;;;;;0.68;0.60;;;;;;;;;;5017604;28;20064;-60
2023/04/03 12:13:48;;;;;;;7.55;0.85;;;;;;;;;;5022876;28;20586;-58
2023/04/03 12:16:38;;;;;;;1.13;0.63;;;;;;;;;;5018234;28;20055;-58
2023/04/03 12:19:14;;;;;;;2.58;0.80;;;;;;;;;;5023074;28;20092;-57
2023/04/03 12:21:43;;;;;;;0.88;0.52;;;;;;;;;;5022735;28;20081;-58
2023/04/03 12:24:10;;;;;;;3.20;0.90;;;;;;;;;;5017970;28;20565;-58
2023/04/03 12:26:56;;;;;;;1.83;0.82;;;;;;;;;;5013793;28;20558;-57
2023/04/03 12:29:27;;;;;;;1.85;0.75;;;;;;;;;;5017500;28;20061;-57
2023/04/03 12:31:58;;;;;;;1.75;0.80;;;;;;;;;;5014584;28;20052;-58
2023/04/03 12:34:44;;;;;;;2.95;0.82;;;;;;;;;;5014709;28;21787;-37
2023/04/03 12:37:19;;;;;;;1.55;0.80;;;;;;;;;;5015432;28;20053;-57
2023/04/03 12:40:01;;;;;;;1.95;0.90;;;;;;;;;;5019891;28;20065;-58
2023/04/03 12:42:39;;;;;;;1.45;0.80;;;;;;;;;;5006523;28;20132;-59
2023/04/03 12:45:15;;;;;;;3.60;0.60;;;;;;;;;;5009476;28;20154;-59
2023/04/03 12:47:42;;;;;;;2.10;0.98;;;;;;;;;;4995149;28;20058;-58
2023/04/03 12:50:21;;;;;;;1.38;0.90;;;;;;;;;;4994700;28;20055;-57
2023/04/03 12:52:51;;;;;;;3.05;0.95;;;;;;;;;;4996656;28;20173;-58
2023/04/03 12:55:18;;;;;;;3.90;1.05;;;;;;;;;;4999249;28;20080;-59
2023/04/03 12:57:45;;;;;;;2.58;1.13;;;;;;;;;;4994734;28;20046;-59
2023/04/03 13:00:39;;;;;;;2.40;0.80;;;;;;;;;;5000889;28;20054;-59
2023/04/03 13:03:06;;;;;;;3.92;0.90;;;;;;;;;;4998675;28;20050;-58
2023/04/03 13:05:34;;;;;;;1.10;0.82;;;;;;;;;;5002963;28;20061;-60
2023/04/03 13:08:09;;;;;;;1.10;0.80;;;;;;;;;;5002422;28;20133;-57
2023/04/03 13:10:46;;;;;;;2.35;0.85;;;;;;;;;;4983984;28;20619;-57
2023/04/03 13:13:14;;;;;;;2.60;0.98;;;;;;;;;;5001483;28;20105;-57
2023/04/03 13:15:42;;;;;;;1.48;0.68;;;;;;;;;;4999891;28;20057;-60
2023/04/03 13:18:41;;;;;;;2.50;1.45;;;;;;;;;;5000892;28;20141;-59
2023/04/03 13:21:13;;;;;;;1.80;1.20;;;;;;;;;;4966675;28;20042;-59
2023/04/03 13:23:43;;;;;;;2.10;0.80;;;;;;;;;;4999747;28;20203;-59
2023/04/03 13:26:09;;;;;;;8.18;1.90;;;;;;;;;;5001002;28;21008;-59
2023/04/03 13:28:36;;;;;;;1.38;0.85;;;;;;;;;;4999668;28;20118;-59
2023/04/03 13:31:14;;;;;;;2.10;0.73;;;;;;;;;;5000602;28;20054;-57
2023/04/03 13:33:51;;;;;;;2.35;1.00;;;;;;;;;;5001575;28;20058;-57
2023/04/03 13:36:22;;;;;;;1.60;0.82;;;;;;;;;;5001423;28;20050;-58
2023/04/03 13:39:07;;;;;;;2.13;1.10;;;;;;;;;;5001594;28;20125;-59
2023/04/03 13:41:35;;;;;;;1.13;0.80;;;;;;;;;;5001004;28;20057;-57
2023/04/03 13:44:20;;;;;;;0.65;0.65;;;;;;;;;;4999873;28;20519;-59
2023/04/03 13:46:48;;;;;;;1.77;0.80;;;;;;;;;;5001789;28;20058;-58
2023/04/03 13:49:22;;;;;;;3.30;0.80;;;;;;;;;;5000626;28;20493;-58
2023/04/03 13:51:48;;;;;;;1.95;1.00;;;;;;;;;;5002433;28;20085;-58
2023/04/03 13:54:37;;;;;;;1.67;0.90;;;;;;;;;;4991521;28;20047;-55
2023/04/03 13:57:11;;;;;;;2.75;1.13;;;;;;;;;;4999314;28;20053;-57
2023/04/03 13:59:37;;;;;;;3.28;1.00;;;;;;;;;;5001428;28;20046;-58
2023/04/03 14:02:04;;;;;;;3.47;1.00;;;;;;;;;;5001211;28;20051;-58
2023/04/03 14:04:32;;;;;;;2.58;1.02;;;;;;;;;;5002055;28;20113;-57
2023/04/03 14:06:59;;;;;;;3.42;1.15;;;;;;;;;;5000696;28;20050;-58
2023/04/03 14:09:27;;;;;;;1.23;1.00;;;;;;;;;;4999134;28;20050;-59
2023/04/03 14:11:55;;;;;;;13.52;1.00;;;;;;;;;;5000722;28;20153;-57
2023/04/03 14:14:32;;;;;;;2.78;1.23;;;;;;;;;;5002047;28;20447;-58
2023/04/03 14:17:01;;;;;;;3.60;1.17;;;;;;;;;;5017122;28;20042;-58
2023/04/03 14:19:31;;;;;;;1.65;1.05;;;;;;;;;;5000774;28;20859;-59
2023/04/03 14:21:58;;;;;;;2.83;1.00;;;;;;;;;;5000694;28;20050;-60
2023/04/03 14:24:25;;;;;;;1.60;1.00;;;;;;;;;;5000891;28;20058;-56
2023/04/03 14:26:53;;;;;;;2.78;1.05;;;;;;;;;;5004025;28;20074;-58
2023/04/03 14:29:20;;;;;;;1.42;0.77;;;;;;;;;;5005841;28;20507;-60
2023/04/03 14:31:47;;;;;;;1.02;0.85;;;;;;;;;;5002985;28;20061;-59
2023/04/03 14:34:15;;;;;;;1.30;0.95;;;;;;;;;;5003058;28;20054;-59
2023/04/03 14:36:42;;;;;;;2.25;0.90;;;;;;;;;;5005077;28;20046;-60
2023/04/03 14:39:27;;;;;;;3.85;1.00;;;;;;;;;;5002598;28;20548;-59
2023/04/03 14:41:54;;;;;;;1.10;0.88;;;;;;;;;;5004533;28;20526;-60
2023/04/03 14:44:20;;;;;;;2.63;1.05;;;;;;;;;;5015115;28;20062;-60
2023/04/03 14:46:47;;;;;;;6.25;1.35;;;;;;;;;;5021122;28;20054;-58
2023/04/03 14:49:24;;;;;;;2.33;0.98;;;;;;;;;;5023580;28;20082;-59
2023/04/03 14:51:50;;;;;;;2.35;1.20;;;;;;;;;;5023716;28;20054;-58
2023/04/03 14:54:21;;;;;;;2.35;0.90;;;;;;;;;;5022379;28;20599;-59
2023/04/03 14:56:47;;;;;;;3.10;0.80;;;;;;;;;;5024338;28;20522;-59